Time;durP1;ratioP1;P1;durP2;ratioP2;P2;SDS_P1;SDS_P2;PMS_P1;PMS_P2;Temp;Humidity;BMP_temperature;BMP_pressure;BME280_temperature;BME280_humidity;BME280_pressure;Samples;Min_cycle;Max_cycle;Signal;HPM_P1;HPM_P2
2024/02/19 00:01:27;;;;;;;4.00;1.05;;;;;;;7.64;98.32;101707.91;5081250;28;20043;-69
2024/02/19 00:03:52;;;;;;;2.03;0.90;;;;;;;7.63;98.13;101704.47;5086670;28;20032;-69
2024/02/19 00:06:18;;;;;;;5.70;0.80;;;;;;;7.60;98.13;101698.66;5084103;28;20028;-69
2024/02/19 00:08:43;;;;;;;8.73;1.02;;;;;;;7.60;99.02;101701.25;5081008;28;20037;-69
2024/02/19 00:11:08;;;;;;;3.33;1.40;;;;;;;7.60;98.89;101696.88;5081987;28;20790;-69
2024/02/19 00:13:36;;;;;;;2.28;1.00;;;;;;;7.56;99.37;101692.81;5083467;28;20036;-69
2024/02/19 00:16:01;;;;;;;2.03;0.90;;;;;;;7.54;98.64;101681.72;5084272;28;20564;-69
2024/02/19 00:18:27;;;;;;;2.63;1.13;;;;;;;7.54;98.31;101665.34;5081298;28;20035;-69
2024/02/19 00:20:52;;;;;;;2.45;1.10;;;;;;;7.54;98.28;101666.16;5085349;28;20089;-69
2024/02/19 00:23:18;;;;;;;3.28;0.85;;;;;;;7.44;99.26;101670.25;5085667;28;20065;-69
2024/02/19 00:25:43;;;;;;;9.98;2.92;;;;;;;7.20;100.00;101667.41;5076741;28;20077;-69
2024/02/19 00:28:10;;;;;;;14.27;4.07;;;;;;;6.95;100.00;101668.06;5072734;28;20036;-69
2024/02/19 00:30:36;;;;;;;20.38;5.97;;;;;;;6.71;100.00;101669.50;5069580;28;20875;-69
2024/02/19 00:33:01;;;;;;;22.42;5.25;;;;;;;6.53;100.00;101665.44;5070428;28;20130;-69
2024/02/19 00:35:27;;;;;;;15.80;5.97;;;;;;;6.36;100.00;101660.38;5068924;28;20036;-69
2024/02/19 00:37:52;;;;;;;24.05;6.95;;;;;;;6.22;100.00;101662.00;5073252;28;20109;-69
2024/02/19 00:40:20;;;;;;;18.58;5.85;;;;;;;6.11;100.00;101666.16;5067270;28;20150;-69
2024/02/19 00:42:46;;;;;;;20.27;6.18;;;;;;;5.99;100.00;101652.97;5069006;28;20105;-69
2024/02/19 00:45:12;;;;;;;9.52;3.45;;;;;;;6.20;100.00;101655.25;5069946;28;20040;-69
2024/02/19 00:47:38;;;;;;;11.25;4.07;;;;;;;6.38;100.00;101650.78;5066057;28;20032;-69
2024/02/19 00:50:04;;;;;;;12.23;4.15;;;;;;;6.45;100.00;101649.50;5067381;28;20568;-68
2024/02/19 00:52:30;;;;;;;8.15;3.38;;;;;;;6.45;100.00;101644.34;5070215;28;20480;-68
2024/02/19 00:54:57;;;;;;;5.97;2.55;;;;;;;6.64;100.00;101642.31;5088914;28;20063;-69
2024/02/19 00:57:23;;;;;;;5.55;1.83;;;;;;;6.87;100.00;101644.38;5074591;28;20488;-69
2024/02/19 00:59:49;;;;;;;6.43;2.65;;;;;;;6.80;100.00;101634.47;5083339;28;20122;-68
2024/02/19 01:02:14;;;;;;;11.18;3.08;;;;;;;6.60;100.00;101630.50;5089960;28;20123;-69
2024/02/19 01:04:40;;;;;;;6.65;2.60;;;;;;;6.51;100.00;101629.28;5087224;28;20412;-69
2024/02/19 01:07:06;;;;;;;6.57;2.55;;;;;;;6.45;100.00;101631.38;5087951;28;20028;-69
2024/02/19 01:09:31;;;;;;;7.70;2.85;;;;;;;6.61;100.00;101624.38;5086406;28;20077;-69
2024/02/19 01:11:57;;;;;;;6.95;2.35;;;;;;;6.66;100.00;101619.75;5088249;28;20089;-68
2024/02/19 01:14:22;;;;;;;8.05;2.92;;;;;;;6.59;100.00;101614.13;5082013;28;20062;-69
2024/02/19 01:16:48;;;;;;;6.00;2.63;;;;;;;6.63;100.00;101599.22;5082967;28;20042;-69
2024/02/19 01:19:13;;;;;;;8.77;3.20;;;;;;;6.70;100.00;101602.25;5086473;28;20038;-69
2024/02/19 01:21:39;;;;;;;12.52;3.55;;;;;;;6.64;100.00;101601.72;5084782;28;20111;-69
2024/02/19 01:24:04;;;;;;;12.93;3.30;;;;;;;6.62;100.00;101593.19;5088241;28;20028;-69
2024/02/19 01:26:30;;;;;;;11.13;3.22;;;;;;;6.64;100.00;101585.34;5087179;28;20487;-69
2024/02/19 01:28:55;;;;;;;8.55;1.33;;;;;;;6.91;100.00;101580.25;5082642;28;20020;-69
2024/02/19 01:31:21;;;;;;;5.07;1.33;;;;;;;7.02;100.00;101577.00;5087608;28;20059;-69
2024/02/19 01:33:46;;;;;;;13.25;2.53;;;;;;;7.02;100.00;101575.25;5086056;28;20063;-69
2024/02/19 01:36:12;;;;;;;15.07;5.32;;;;;;;6.74;100.00;101568.31;5079258;28;20039;-69
2024/02/19 01:38:38;;;;;;;9.23;3.35;;;;;;;6.60;100.00;101569.19;5066292;28;20078;-68
2024/02/19 01:41:03;;;;;;;4.57;1.77;;;;;;;6.69;100.00;101566.94;5071432;28;20517;-69
2024/02/19 01:43:29;;;;;;;4.40;1.45;;;;;;;6.88;100.00;101567.50;5063797;28;20031;-69
2024/02/19 01:45:55;;;;;;;2.38;1.15;;;;;;;6.97;100.00;101551.38;5069316;28;20123;-69
2024/02/19 01:48:21;;;;;;;3.42;1.10;;;;;;;7.04;100.00;101552.66;5067349;28;20111;-69
2024/02/19 01:50:48;;;;;;;3.95;1.05;;;;;;;7.14;100.00;101542.53;5065929;28;20068;-69
2024/02/19 01:53:16;;;;;;;3.58;0.80;;;;;;;7.24;100.00;101534.09;5082554;28;20030;-69
2024/02/19 01:55:42;;;;;;;2.90;0.75;;;;;;;7.31;100.00;101529.34;5073006;28;20036;-69
2024/02/19 01:58:10;;;;;;;1.40;0.98;;;;;;;7.30;100.00;101522.50;5071693;28;20068;-69
2024/02/19 02:00:36;;;;;;;1.13;0.55;;;;;;;7.29;100.00;101515.66;5079419;28;20408;-69
2024/02/19 02:03:02;;;;;;;1.63;0.80;;;;;;;7.27;100.00;101505.38;5085218;28;20122;-69
2024/02/19 02:05:29;;;;;;;4.03;1.38;;;;;;;7.09;100.00;101508.34;5089267;28;20115;-69
2024/02/19 02:07:54;;;;;;;4.25;1.75;;;;;;;6.91;100.00;101499.94;5087210;28;20035;-69
2024/02/19 02:10:20;;;;;;;5.18;2.75;;;;;;;6.64;100.00;101492.94;5089129;28;20032;-69
2024/02/19 02:12:45;;;;;;;6.35;2.38;;;;;;;6.45;100.00;101495.00;5084531;28;20060;-69
2024/02/19 02:15:11;;;;;;;7.65;2.75;;;;;;;6.37;100.00;101493.81;5087810;28;20030;-69
2024/02/19 02:17:37;;;;;;;5.45;2.22;;;;;;;6.40;100.00;101483.25;5080427;28;20036;-69
2024/02/19 02:20:04;;;;;;;6.43;2.35;;;;;;;6.53;100.00;101481.59;5081723;28;20066;-69
2024/02/19 02:22:30;;;;;;;6.82;1.85;;;;;;;6.73;100.00;101481.19;5083641;28;20093;-69
2024/02/19 02:24:55;;;;;;;5.82;2.45;;;;;;;6.82;100.00;101474.59;5084963;28;20096;-69
2024/02/19 02:27:21;;;;;;;4.78;1.08;;;;;;;6.89;100.00;101486.25;5085165;28;20035;-68
2024/02/19 02:29:47;;;;;;;2.60;1.27;;;;;;;7.06;100.00;101490.38;5078297;28;20136;-69
2024/02/19 02:32:12;;;;;;;1.98;1.02;;;;;;;7.20;100.00;101488.56;5065197;28;20044;-68
2024/02/19 02:34:38;;;;;;;3.65;1.05;;;;;;;7.26;100.00;101497.69;5064242;28;20036;-69
2024/02/19 02:37:03;;;;;;;2.35;1.00;;;;;;;7.27;100.00;101496.78;5063385;28;20047;-69
2024/02/19 02:39:31;;;;;;;4.32;1.52;;;;;;;7.24;100.00;101494.38;5064666;28;20046;-69
2024/02/19 02:41:56;;;;;;;3.20;0.93;;;;;;;7.17;100.00;101485.31;5067239;28;20040;-69
2024/02/19 02:44:22;;;;;;;4.55;1.52;;;;;;;7.13;100.00;101489.88;5068377;28;20468;-69
2024/02/19 02:46:47;;;;;;;3.72;0.80;;;;;;;7.11;100.00;101486.53;5065912;28;20071;-69
2024/02/19 02:49:13;;;;;;;4.57;0.90;;;;;;;7.15;100.00;101488.00;5065711;28;20135;-69
2024/02/19 02:51:38;;;;;;;3.38;1.15;;;;;;;7.22;100.00;101475.50;5064519;28;20068;-69
2024/02/19 02:54:04;;;;;;;2.47;0.88;;;;;;;7.26;100.00;101479.56;5083699;28;20514;-69
2024/02/19 02:56:29;;;;;;;2.40;0.80;;;;;;;7.34;100.00;101477.31;5070337;28;20067;-69
2024/02/19 02:58:55;;;;;;;3.25;1.15;;;;;;;7.40;100.00;101476.91;5076974;28;20028;-69
2024/02/19 03:01:25;;;;;;;2.15;0.80;;;;;;;7.49;100.00;101473.72;5067755;28;20536;-69
2024/02/19 03:03:51;;;;;;;3.63;1.00;;;;;;;7.56;99.65;101462.00;5066608;28;21958;-69
2024/02/19 03:06:17;;;;;;;8.07;1.30;;;;;;;7.65;99.04;101469.16;5076876;28;20046;-68
2024/02/19 03:08:43;;;;;;;1.38;0.65;;;;;;;7.70;99.07;101473.22;5068293;28;20147;-69
2024/02/19 03:11:08;;;;;;;3.50;0.70;;;;;;;7.66;99.47;101472.59;5068160;28;20155;-69
2024/02/19 03:13:34;;;;;;;4.95;0.95;;;;;;;7.57;100.00;101473.19;5066772;28;20061;-69
2024/02/19 03:16:00;;;;;;;1.88;0.80;;;;;;;7.52;100.00;101476.13;5064544;28;20032;-69
2024/02/19 03:18:26;;;;;;;2.40;0.93;;;;;;;7.48;100.00;101468.63;5065827;28;20115;-69
2024/02/19 03:20:52;;;;;;;3.50;1.30;;;;;;;7.46;100.00;101473.94;5064993;28;20036;-69
2024/02/19 03:23:18;;;;;;;2.70;0.93;;;;;;;7.50;100.00;101467.63;5080619;28;20031;-69
2024/02/19 03:25:44;;;;;;;2.97;1.08;;;;;;;7.51;100.00;101484.84;5084275;28;20560;-69
2024/02/19 03:28:10;;;;;;;2.45;0.90;;;;;;;7.47;100.00;101480.78;5085076;28;20028;-69
2024/02/19 03:30:36;;;;;;;2.67;1.20;;;;;;;7.42;100.00;101490.63;5086828;28;20394;-69
2024/02/19 03:33:02;;;;;;;4.47;1.20;;;;;;;7.35;100.00;101494.53;5085598;28;20039;-69
2024/02/19 03:35:27;;;;;;;2.67;0.80;;;;;;;7.32;100.00;101489.53;5080298;28;20036;-69
2024/02/19 03:37:53;;;;;;;2.85;1.08;;;;;;;7.36;100.00;101485.81;5084321;28;20054;-69
2024/02/19 03:40:18;;;;;;;3.65;0.98;;;;;;;7.37;100.00;101487.47;5083064;28;20024;-68
2024/02/19 03:42:44;;;;;;;3.72;0.95;;;;;;;7.40;100.00;101492.47;5081885;28;20103;-69
2024/02/19 03:45:10;;;;;;;4.63;1.10;;;;;;;7.40;100.00;101487.28;5083666;28;20028;-68
2024/02/19 03:47:35;;;;;;;4.38;1.08;;;;;;;7.46;100.00;101486.88;5088414;28;20058;-69
2024/02/19 03:50:01;;;;;;;4.07;1.38;;;;;;;7.57;100.00;101483.56;5092100;28;20024;-69
2024/02/19 03:52:27;;;;;;;2.85;0.98;;;;;;;7.62;100.00;101482.34;5092559;28;20122;-69
2024/02/19 03:54:52;;;;;;;3.38;1.10;;;;;;;7.68;99.73;101482.88;5089786;28;20107;-69
2024/02/19 03:57:18;;;;;;;1.67;0.70;;;;;;;7.67;99.67;101484.63;5089699;28;20063;-69
2024/02/19 03:59:43;;;;;;;4.97;1.30;;;;;;;7.66;99.61;101483.81;5088127;28;20023;-69
2024/02/19 04:02:09;;;;;;;2.90;1.25;;;;;;;7.65;100.00;101492.53;5090052;28;20027;-69
2024/02/19 04:04:34;;;;;;;3.58;1.00;;;;;;;7.61;100.00;101496.25;5086920;28;20025;-69
2024/02/19 04:07:00;;;;;;;3.03;1.40;;;;;;;7.56;100.00;101487.94;5085971;28;20032;-69
2024/02/19 04:09:25;;;;;;;3.63;1.35;;;;;;;7.52;100.00;101488.25;5091567;28;20368;-69
2024/02/19 04:11:51;;;;;;;1.77;0.93;;;;;;;7.52;100.00;101489.09;5087027;28;20125;-66
2024/02/19 04:14:16;;;;;;;2.53;0.70;;;;;;;7.53;100.00;101485.56;5086757;28;20076;-66
2024/02/19 04:16:42;;;;;;;3.25;1.15;;;;;;;7.54;100.00;101476.03;5088354;28;20104;-69
2024/02/19 04:19:08;;;;;;;4.90;1.38;;;;;;;7.59;100.00;101477.34;5087670;28;20039;-69
2024/02/19 04:21:33;;;;;;;1.73;0.60;;;;;;;7.61;99.93;101475.50;5087891;28;20039;-68
2024/02/19 04:23:59;;;;;;;4.82;1.65;;;;;;;7.65;99.80;101476.94;5088242;28;20089;-69
2024/02/19 04:26:24;;;;;;;2.75;0.95;;;;;;;7.71;99.97;101472.28;5079543;28;20119;-69
2024/02/19 04:28:53;;;;;;;2.85;1.13;;;;;;;7.66;100.00;101478.63;5085799;28;20032;-66
2024/02/19 04:31:18;;;;;;;2.40;0.80;;;;;;;7.57;100.00;101475.78;5090570;28;20031;-69
2024/02/19 04:33:43;;;;;;;3.38;1.35;;;;;;;7.43;100.00;101481.06;5090016;28;20444;-69
2024/02/19 04:36:09;;;;;;;1.85;0.70;;;;;;;7.53;100.00;101472.59;5091227;28;20758;-69
2024/02/19 04:38:35;;;;;;;2.08;0.90;;;;;;;7.65;100.00;101478.72;5090142;28;20028;-69
2024/02/19 04:41:00;;;;;;;3.20;1.23;;;;;;;7.75;99.48;101481.53;5091196;28;20421;-69
2024/02/19 04:43:26;;;;;;;2.08;0.70;;;;;;;7.78;99.04;101481.34;5090422;28;20078;-69
2024/02/19 04:45:51;;;;;;;4.70;0.73;;;;;;;7.76;98.38;101478.00;5089727;28;20028;-69
2024/02/19 04:48:17;;;;;;;2.42;1.15;;;;;;;7.70;98.60;101481.00;5091585;28;20508;-69
2024/02/19 04:50:42;;;;;;;2.95;1.48;;;;;;;7.70;98.63;101465.44;5090409;28;20031;-68
2024/02/19 04:53:08;;;;;;;3.53;1.20;;;;;;;7.68;98.81;101469.91;5091159;28;20027;-69
2024/02/19 04:55:33;;;;;;;2.17;1.02;;;;;;;7.68;98.91;101470.75;5089467;28;20092;-69
2024/02/19 04:57:59;;;;;;;2.70;1.08;;;;;;;7.71;98.70;101469.72;5086292;28;20032;-69
2024/02/19 05:00:26;;;;;;;2.83;1.13;;;;;;;7.74;98.94;101462.56;5087923;28;20335;-69
2024/02/19 05:02:51;;;;;;;2.95;1.00;;;;;;;7.76;98.20;101457.25;5087573;28;20024;-66
2024/02/19 05:05:17;;;;;;;2.70;0.98;;;;;;;7.74;98.78;101459.97;5085033;28;20541;-67
2024/02/19 05:07:43;;;;;;;3.13;0.95;;;;;;;7.77;98.46;101466.72;5084635;28;20506;-69
2024/02/19 05:10:10;;;;;;;2.20;1.05;;;;;;;7.77;98.53;101474.50;5086219;28;20032;-69
2024/02/19 05:12:35;;;;;;;3.35;0.93;;;;;;;7.73;99.70;101479.03;5084784;28;20035;-68
2024/02/19 05:15:01;;;;;;;2.83;1.23;;;;;;;7.68;100.00;101472.50;5084456;28;20024;-69
2024/02/19 05:17:27;;;;;;;3.63;1.60;;;;;;;7.50;100.00;101464.19;5089742;28;20032;-69
2024/02/19 05:19:52;;;;;;;4.00;1.33;;;;;;;7.45;100.00;101464.47;5085722;28;20020;-69
2024/02/19 05:22:17;;;;;;;2.03;1.23;;;;;;;7.47;100.00;101462.63;5083811;28;20061;-67
2024/02/19 05:24:47;;;;;;;4.32;1.10;;;;;;;7.58;100.00;101460.13;5083494;28;20122;-67
2024/02/19 05:27:13;;;;;;;3.65;1.40;;;;;;;7.63;99.87;101465.03;5077650;28;20025;-67
2024/02/19 05:29:39;;;;;;;6.38;1.20;;;;;;;7.65;99.72;101463.16;5081654;28;20060;-67
2024/02/19 05:32:04;;;;;;;3.28;1.50;;;;;;;7.59;100.00;101448.81;5074959;28;20032;-67
2024/02/19 05:34:30;;;;;;;4.40;1.80;;;;;;;7.51;100.00;101443.34;5073998;28;20064;-67
2024/02/19 05:36:56;;;;;;;2.60;1.27;;;;;;;7.62;99.89;101446.03;5076545;28;20112;-67
2024/02/19 05:39:21;;;;;;;4.68;1.73;;;;;;;7.66;100.00;101439.72;5075634;28;20515;-68
2024/02/19 05:41:47;;;;;;;2.97;1.70;;;;;;;7.54;100.00;101440.56;5075062;28;20032;-67
2024/02/19 05:44:12;;;;;;;5.00;2.30;;;;;;;7.34;100.00;101438.41;5078426;28;20089;-67
2024/02/19 05:46:38;;;;;;;5.53;2.80;;;;;;;7.23;100.00;101441.69;5079555;28;20040;-67
2024/02/19 05:49:03;;;;;;;5.05;2.58;;;;;;;7.08;100.00;101445.31;5075889;28;20181;-67
2024/02/19 05:51:29;;;;;;;6.35;2.75;;;;;;;7.07;100.00;101438.47;5074403;28;20493;-67
2024/02/19 05:53:55;;;;;;;6.72;2.72;;;;;;;7.13;100.00;101432.03;5084186;28;20045;-68
2024/02/19 05:56:20;;;;;;;6.07;2.40;;;;;;;7.13;100.00;101448.41;5074527;28;20163;-67
2024/02/19 05:58:47;;;;;;;5.95;2.70;;;;;;;7.11;100.00;101439.06;5081641;28;20119;-67
2024/02/19 06:01:13;;;;;;;5.93;2.72;;;;;;;7.07;100.00;101435.88;5088652;28;20035;-67
2024/02/19 06:03:38;;;;;;;5.78;2.78;;;;;;;7.01;100.00;101445.78;5082502;28;20032;-67
2024/02/19 06:06:04;;;;;;;11.85;4.07;;;;;;;6.85;100.00;101449.34;5090342;28;20057;-67
2024/02/19 06:08:30;;;;;;;7.90;3.78;;;;;;;6.82;100.00;101440.94;5083626;28;20058;-67
2024/02/19 06:10:56;;;;;;;8.38;4.15;;;;;;;6.91;100.00;101445.53;5085884;28;20051;-67
2024/02/19 06:13:21;;;;;;;11.60;3.33;;;;;;;6.96;100.00;101435.72;5082431;28;20091;-68
2024/02/19 06:15:47;;;;;;;10.70;2.92;;;;;;;7.10;100.00;101446.00;5083534;28;20114;-67
2024/02/19 06:18:13;;;;;;;7.32;2.55;;;;;;;7.13;100.00;101447.56;5083710;28;20544;-67
2024/02/19 06:20:39;;;;;;;7.43;3.30;;;;;;;7.11;100.00;101452.03;5082644;28;20511;-67
2024/02/19 06:23:05;;;;;;;5.60;2.15;;;;;;;7.11;100.00;101452.84;5085574;28;20468;-67
2024/02/19 06:25:30;;;;;;;5.43;2.03;;;;;;;7.10;100.00;101452.94;5082271;28;20113;-67
2024/02/19 06:27:56;;;;;;;11.43;5.68;;;;;;;7.07;100.00;101451.41;5082750;28;20137;-67
2024/02/19 06:30:22;;;;;;;10.18;4.60;;;;;;;7.14;100.00;101457.00;5084580;28;20024;-67
2024/02/19 06:32:48;;;;;;;10.18;4.55;;;;;;;7.29;100.00;101450.84;5083019;28;20032;-67
2024/02/19 06:35:14;;;;;;;12.07;3.90;;;;;;;7.32;100.00;101453.25;5087399;28;20510;-67
2024/02/19 06:37:40;;;;;;;11.60;5.03;;;;;;;7.25;100.00;101459.75;5084951;28;20035;-67
2024/02/19 06:40:06;;;;;;;9.55;4.45;;;;;;;7.12;100.00;101458.88;5086907;28;20040;-67
2024/02/19 06:42:32;;;;;;;10.18;3.75;;;;;;;7.08;100.00;101463.44;5085851;28;20309;-67
2024/02/19 06:44:57;;;;;;;15.20;4.03;;;;;;;7.14;100.00;101464.78;5084533;28;20028;-67
2024/02/19 06:47:23;;;;;;;6.82;2.67;;;;;;;7.29;100.00;101466.41;5087018;28;20072;-67
2024/02/19 06:49:48;;;;;;;5.13;2.30;;;;;;;7.52;100.00;101464.91;5084090;28;20391;-67
2024/02/19 06:52:14;;;;;;;4.00;2.35;;;;;;;7.68;100.00;101464.72;5085692;28;20038;-67
2024/02/19 06:54:39;;;;;;;2.55;1.23;;;;;;;7.73;100.00;101460.06;5083390;28;20040;-67
2024/02/19 06:57:05;;;;;;;4.95;1.80;;;;;;;7.77;100.00;101462.34;5084021;28;20032;-67
2024/02/19 06:59:30;;;;;;;4.93;1.65;;;;;;;7.81;100.00;101460.38;5080512;28;20032;-67
2024/02/19 07:01:56;;;;;;;7.07;2.22;;;;;;;7.85;100.00;101465.25;5085707;28;20032;-69
2024/02/19 07:04:22;;;;;;;6.53;1.00;;;;;;;7.86;100.00;101466.94;5082842;28;20111;-69
2024/02/19 07:06:47;;;;;;;4.03;1.30;;;;;;;7.88;100.00;101467.66;5081477;28;20123;-69
2024/02/19 07:09:14;;;;;;;5.80;1.48;;;;;;;7.90;100.00;101462.38;5083182;28;20433;-69
2024/02/19 07:11:40;;;;;;;2.63;1.08;;;;;;;7.92;100.00;101457.91;5081439;28;20028;-69
2024/02/19 07:14:05;;;;;;;4.57;1.50;;;;;;;7.92;100.00;101461.34;5086144;28;20044;-69
2024/02/19 07:16:31;;;;;;;5.05;1.75;;;;;;;7.91;100.00;101459.66;5087600;28;20125;-69
2024/02/19 07:18:56;;;;;;;2.53;0.90;;;;;;;7.96;100.00;101457.59;5082611;28;20429;-69
2024/02/19 07:21:22;;;;;;;4.35;1.30;;;;;;;8.01;100.00;101444.31;5083526;28;20047;-68
2024/02/19 07:23:48;;;;;;;3.47;1.40;;;;;;;7.99;100.00;101438.41;5081995;28;20032;-68
2024/02/19 07:26:13;;;;;;;3.58;1.40;;;;;;;7.97;100.00;101441.09;5079398;28;20078;-68
2024/02/19 07:28:39;;;;;;;2.85;1.38;;;;;;;7.99;100.00;101459.16;5076082;28;20036;-68
2024/02/19 07:31:04;;;;;;;10.60;2.00;;;;;;;8.01;100.00;101501.41;5075520;28;20036;-69
2024/02/19 07:33:30;;;;;;;4.10;1.77;;;;;;;7.93;100.00;101521.84;5083355;28;20514;-68
2024/02/19 07:35:55;;;;;;;4.35;1.30;;;;;;;8.01;100.00;101524.78;5081470;28;20445;-69
2024/02/19 07:38:21;;;;;;;3.35;1.42;;;;;;;8.09;100.00;101519.88;5083357;28;20434;-69
2024/02/19 07:40:46;;;;;;;3.88;1.17;;;;;;;8.15;100.00;101522.06;5077013;28;20059;-67
2024/02/19 07:43:15;;;;;;;5.10;0.93;;;;;;;8.23;100.00;101524.97;5069925;28;20521;-69
2024/02/19 07:45:40;;;;;;;3.30;1.33;;;;;;;8.26;100.00;101508.34;5072566;28;20510;-68
2024/02/19 07:48:07;;;;;;;3.08;1.60;;;;;;;8.28;100.00;101504.72;5059754;28;20028;-69
2024/02/19 07:50:35;;;;;;;3.42;1.75;;;;;;;8.36;100.00;101508.59;5078911;28;20399;-68
2024/02/19 07:53:01;;;;;;;7.30;2.42;;;;;;;8.42;100.00;101518.56;5081834;28;20036;-69
2024/02/19 07:55:26;;;;;;;3.95;1.52;;;;;;;8.50;100.00;101511.09;5080991;28;20024;-69
2024/02/19 07:57:52;;;;;;;8.68;2.22;;;;;;;8.57;100.00;101517.50;5081544;28;20029;-69
2024/02/19 08:00:18;;;;;;;5.43;2.17;;;;;;;8.59;100.00;101526.84;5084188;28;20032;-69
2024/02/19 08:02:44;;;;;;;2.90;1.88;;;;;;;8.56;100.00;101532.25;5081787;28;20119;-69
2024/02/19 08:05:09;;;;;;;5.38;2.45;;;;;;;8.65;100.00;101531.63;5073675;28;21665;-69
2024/02/19 08:07:35;;;;;;;4.35;2.17;;;;;;;8.74;100.00;101524.13;5061848;28;20453;-69
2024/02/19 08:10:00;;;;;;;7.15;2.35;;;;;;;8.88;100.00;101527.44;5070055;28;20040;-69
2024/02/19 08:12:26;;;;;;;7.10;2.35;;;;;;;8.98;100.00;101536.22;5066593;28;20071;-69
2024/02/19 08:14:51;;;;;;;8.05;2.05;;;;;;;9.04;100.00;101526.31;5071078;28;20040;-69
2024/02/19 08:17:17;;;;;;;4.32;1.75;;;;;;;9.14;100.00;101530.75;5062289;28;20518;-69
2024/02/19 08:19:43;;;;;;;3.15;1.52;;;;;;;9.20;96.67;101540.72;5062165;28;20082;-69
2024/02/19 08:22:08;;;;;;;6.18;1.27;;;;;;;9.22;95.05;101536.25;5063091;28;20036;-69
2024/02/19 08:24:36;;;;;;;2.42;1.10;;;;;;;9.25;96.53;101530.84;5064308;28;20036;-69
2024/02/19 08:27:02;;;;;;;3.08;1.17;;;;;;;9.33;98.51;101530.28;5070071;28;20039;-69
2024/02/19 08:29:28;;;;;;;2.90;1.52;;;;;;;9.42;100.00;101531.41;5070686;28;22207;-69
2024/02/19 08:31:54;;;;;;;3.53;1.25;;;;;;;9.43;99.18;101530.47;5080668;28;20035;-69
2024/02/19 08:34:20;;;;;;;4.38;1.20;;;;;;;9.52;100.00;101537.56;5079131;28;20028;-68
2024/02/19 08:36:45;;;;;;;3.25;1.52;;;;;;;9.61;100.00;101523.91;5089171;28;20024;-66
2024/02/19 08:39:11;;;;;;;2.65;1.48;;;;;;;9.63;100.00;101525.44;5084718;28;20491;-69
2024/02/19 08:41:36;;;;;;;3.30;1.58;;;;;;;9.50;94.67;101516.88;5087763;28;20120;-68
2024/02/19 08:44:02;;;;;;;3.15;1.17;;;;;;;9.50;94.27;101519.47;5089827;28;20075;-68
2024/02/19 08:46:27;;;;;;;2.80;1.27;;;;;;;9.57;97.03;101522.44;5083342;28;20093;-68
2024/02/19 08:48:53;;;;;;;3.67;1.60;;;;;;;9.56;92.28;101524.22;5086560;28;20032;-68
2024/02/19 08:51:22;;;;;;;2.17;1.02;;;;;;;9.67;97.46;101513.03;5091730;28;20043;-68
2024/02/19 08:53:48;;;;;;;9.75;1.52;;;;;;;9.66;92.67;101506.16;5089182;28;20024;-68
2024/02/19 08:56:13;;;;;;;3.83;1.60;;;;;;;9.67;92.57;101499.19;5087400;28;20028;-68
2024/02/19 08:58:39;;;;;;;2.70;0.90;;;;;;;9.65;92.28;101496.69;5086096;28;20077;-68
2024/02/19 09:01:10;;;;;;;6.13;1.20;;;;;;;9.60;92.76;101491.84;5086457;28;20396;-68
2024/02/19 09:03:36;;;;;;;3.60;1.10;;;;;;;9.55;90.47;101478.34;5087387;28;20085;-68
2024/02/19 09:06:02;;;;;;;6.25;1.20;;;;;;;9.55;94.95;101478.34;5085062;28;21646;-68
2024/02/19 09:08:28;;;;;;;4.88;1.20;;;;;;;9.64;96.15;101485.47;5085651;28;20055;-68
2024/02/19 09:10:53;;;;;;;7.38;1.42;;;;;;;9.64;96.36;101498.47;5087698;28;20468;-69
2024/02/19 09:13:19;;;;;;;3.53;1.60;;;;;;;9.55;93.98;101517.38;5085084;28;20044;-66
2024/02/19 09:15:45;;;;;;;3.22;1.00;;;;;;;9.45;93.20;101521.56;5082954;28;20429;-67
2024/02/19 09:18:11;;;;;;;5.57;2.00;;;;;;;9.41;92.23;101524.53;5084721;28;20036;-67
2024/02/19 09:20:37;;;;;;;6.10;1.42;;;;;;;9.39;92.98;101516.84;5082666;28;20439;-67
2024/02/19 09:23:02;;;;;;;4.18;1.27;;;;;;;9.43;93.64;101518.28;5082704;28;20091;-67
2024/02/19 09:25:28;;;;;;;3.75;0.93;;;;;;;9.55;93.48;101519.97;5079193;28;20115;-67
2024/02/19 09:27:54;;;;;;;4.53;1.77;;;;;;;9.67;94.28;101525.22;5083912;28;20020;-67
2024/02/19 09:30:19;;;;;;;8.18;1.17;;;;;;;9.76;94.22;101524.53;5085269;28;20490;-67
2024/02/19 09:32:45;;;;;;;3.70;1.85;;;;;;;9.87;91.30;101521.97;5082551;28;20068;-67
2024/02/19 09:35:10;;;;;;;6.10;1.40;;;;;;;9.92;91.60;101514.66;5084802;28;20164;-67
2024/02/19 09:37:36;;;;;;;8.20;1.77;;;;;;;9.98;90.97;101519.38;5078564;28;20438;-67
2024/02/19 09:40:05;;;;;;;5.03;1.55;;;;;;;10.03;90.87;101517.25;5087528;28;20034;-67
2024/02/19 09:42:31;;;;;;;3.40;1.38;;;;;;;10.14;91.42;101522.50;5075491;28;20442;-67
2024/02/19 09:44:57;;;;;;;3.95;1.50;;;;;;;10.21;89.35;101518.53;5076117;28;20024;-67
2024/02/19 09:47:23;;;;;;;10.02;2.00;;;;;;;10.32;89.98;101516.88;5076511;28;20094;-67
2024/02/19 09:49:50;;;;;;;3.33;1.02;;;;;;;10.42;90.98;101523.00;5076793;28;20038;-67
2024/02/19 09:52:22;;;;;;;4.82;1.20;;;;;;;10.61;93.58;101518.88;5078439;28;20480;-67
2024/02/19 09:54:49;;;;;;;2.90;1.58;;;;;;;10.89;94.16;101508.88;5077912;28;20037;-67
2024/02/19 09:57:15;;;;;;;3.65;1.48;;;;;;;11.09;94.64;101513.34;5076818;28;20397;-67
2024/02/19 09:59:44;;;;;;;3.97;1.35;;;;;;;11.20;95.01;101515.13;5082091;28;20036;-67
2024/02/19 10:02:18;;;;;;;4.80;1.70;;;;;;;11.27;94.78;101522.31;5077467;28;20032;-67
2024/02/19 10:04:49;;;;;;;3.90;1.77;;;;;;;11.36;94.80;101518.13;5078533;28;20113;-67
2024/02/19 10:07:18;;;;;;;3.88;1.60;;;;;;;11.46;95.53;101521.66;5081527;28;20029;-67
2024/02/19 10:09:44;;;;;;;8.80;3.20;;;;;;;11.52;94.26;101521.16;5082931;28;20552;-67
2024/02/19 10:12:09;;;;;;;6.43;1.77;;;;;;;11.61;94.86;101520.41;5086219;28;20063;-67
2024/02/19 10:14:35;;;;;;;5.78;1.42;;;;;;;11.67;94.71;101528.69;5083788;28;20075;-67
2024/02/19 10:17:00;;;;;;;4.47;1.92;;;;;;;11.66;94.24;101522.66;5085241;28;20542;-67
2024/02/19 10:19:26;;;;;;;5.63;1.27;;;;;;;11.75;94.49;101518.47;5084430;28;20040;-67
2024/02/19 10:21:52;;;;;;;3.22;1.58;;;;;;;11.86;94.21;101513.19;5079312;28;20052;-67
2024/02/19 10:24:18;;;;;;;8.35;1.98;;;;;;;11.89;93.42;101508.53;5083460;28;20078;-67
2024/02/19 10:26:45;;;;;;;2.60;1.33;;;;;;;11.91;93.84;101511.84;5089367;28;20052;-67
2024/02/19 10:29:11;;;;;;;2.65;1.23;;;;;;;11.67;87.02;101513.03;5081613;28;20083;-67
2024/02/19 10:31:36;;;;;;;1.65;0.88;;;;;;;11.54;85.19;101508.81;5083592;28;20044;-67
2024/02/19 10:34:02;;;;;;;3.15;1.15;;;;;;;11.58;87.09;101502.38;5083264;28;20024;-67
2024/02/19 10:36:27;;;;;;;1.95;1.20;;;;;;;11.66;87.96;101500.94;5081752;28;20039;-67
2024/02/19 10:38:53;;;;;;;3.67;0.80;;;;;;;11.69;85.80;101496.28;5085260;28;20447;-67
2024/02/19 10:41:21;;;;;;;2.92;0.95;;;;;;;11.70;85.09;101491.91;5084354;28;20032;-67
2024/02/19 10:43:47;;;;;;;2.70;0.80;;;;;;;11.61;83.85;101489.09;5083541;28;20032;-67
2024/02/19 10:46:19;;;;;;;3.25;0.93;;;;;;;11.62;84.53;101484.69;5080369;28;20487;-67
2024/02/19 10:48:49;;;;;;;4.72;1.08;;;;;;;11.67;84.35;101484.31;5082490;28;20048;-67
2024/02/19 10:51:17;;;;;;;3.63;1.10;;;;;;;11.70;84.48;101482.28;5081937;28;20048;-67
2024/02/19 10:53:44;;;;;;;2.63;0.75;;;;;;;11.80;83.57;101472.78;5081823;28;20395;-67
2024/02/19 10:56:19;;;;;;;2.80;1.08;;;;;;;11.86;81.52;101466.19;5082673;28;20463;-66
2024/02/19 10:59:04;;;;;;;3.70;0.57;;;;;;;11.97;80.24;101455.66;5085855;28;20466;-66
2024/02/19 11:01:48;;;;;;;1.38;0.88;;;;;;;12.14;82.13;101457.69;5080719;28;20061;-66
2024/02/19 11:04:16;;;;;;;2.92;0.60;;;;;;;12.19;80.22;101455.50;5079776;28;20115;-64
2024/02/19 11:06:54;;;;;;;2.45;0.85;;;;;;;12.16;80.55;101447.94;5081755;28;20035;-64
2024/02/19 11:09:20;;;;;;;2.83;0.85;;;;;;;12.23;81.96;101448.25;5098906;28;20055;-64
2024/02/19 11:11:51;;;;;;;2.60;0.95;;;;;;;12.25;85.32;101455.00;5079598;28;20071;-64
2024/02/19 11:14:27;;;;;;;2.22;1.00;;;;;;;12.16;81.06;101445.31;5085224;28;20101;-64
2024/02/19 11:16:54;;;;;;;1.60;0.60;;;;;;;12.10;85.26;101440.63;5078197;28;20782;-64
2024/02/19 11:19:20;;;;;;;3.63;1.00;;;;;;;12.08;86.28;101439.91;5082696;28;20032;-64
2024/02/19 11:21:46;;;;;;;1.52;0.82;;;;;;;12.16;87.81;101437.47;5081629;28;20037;-64